createdAt,value
2018-12-13T00:00:30.420Z,2.40
2018-12-13T00:01:30.458Z,2.10
2018-12-13T00:02:30.376Z,1.80
2018-12-13T00:03:30.368Z,1.80
2018-12-13T00:04:30.326Z,2.10
2018-12-13T00:05:30.323Z,1.70
2018-12-13T00:06:33.334Z,2.40
2018-12-13T00:07:30.743Z,2.00
2018-12-13T00:08:30.247Z,2.50
2018-12-13T00:09:30.240Z,2.30
2018-12-13T00:10:30.198Z,2.70
2018-12-13T00:11:30.181Z,2.30
2018-12-13T00:12:30.149Z,2.70
2018-12-13T00:13:30.191Z,2.10
2018-12-13T00:14:30.082Z,2.60
2018-12-13T00:15:30.159Z,3.20
2018-12-13T00:16:30.033Z,3.30
2018-12-13T00:17:30.010Z,2.30
2018-12-13T00:18:30.191Z,2.00
2018-12-13T00:19:30.123Z,2.30
2018-12-13T00:20:29.999Z,2.30
2018-12-13T00:21:29.968Z,2.20
2018-12-13T00:22:30.434Z,2.80
2018-12-13T00:23:30.911Z,2.30
2018-12-13T00:24:29.854Z,2.10
2018-12-13T00:25:29.836Z,2.10
2018-12-13T00:26:29.781Z,2.30
2018-12-13T00:27:29.797Z,1.90
2018-12-13T00:28:29.824Z,2.40
2018-12-13T00:29:29.815Z,2.20
2018-12-13T00:30:29.684Z,2.30
2018-12-13T00:31:29.662Z,2.50
2018-12-13T00:32:29.677Z,2.50
2018-12-13T00:33:29.638Z,2.40
2018-12-13T00:34:29.643Z,2.60
2018-12-13T00:35:29.619Z,2.60
2018-12-13T00:36:29.543Z,2.40
2018-12-13T00:37:30.041Z,2.70
2018-12-13T00:38:30.235Z,2.50
2018-12-13T00:39:29.462Z,2.00
2018-12-13T00:40:29.446Z,2.80
2018-12-13T00:41:29.480Z,2.40
2018-12-13T00:42:29.384Z,2.30
2018-12-13T00:43:29.373Z,2.70
2018-12-13T00:44:29.415Z,2.90
2018-12-13T00:45:29.336Z,2.70
2018-12-13T00:46:29.306Z,2.30
2018-12-13T00:47:29.349Z,2.60
2018-12-13T00:48:29.226Z,2.00
2018-12-13T00:49:29.216Z,2.30
2018-12-13T00:50:29.441Z,1.90
2018-12-13T00:51:29.172Z,6.70
2018-12-13T00:52:29.276Z,10.00
2018-12-13T00:53:29.111Z,6.80
2018-12-13T00:54:29.085Z,4.50
2018-12-13T00:55:29.088Z,4.70
2018-12-13T00:56:29.092Z,4.90
2018-12-13T00:57:29.145Z,3.90
2018-12-13T00:58:28.957Z,3.40
2018-12-13T00:59:28.954Z,2.90
2018-12-13T01:00:28.930Z,3.60
2018-12-13T01:01:28.913Z,2.70
2018-12-13T01:02:28.991Z,2.30
2018-12-13T01:03:28.870Z,2.30
2018-12-13T01:04:28.855Z,2.40
2018-12-13T01:05:28.863Z,2.50
2018-12-13T01:06:28.812Z,2.20
2018-12-13T01:07:28.834Z,2.10
2018-12-13T01:08:28.992Z,1.70
2018-12-13T01:09:28.714Z,2.30
2018-12-13T01:10:28.676Z,2.10
2018-12-13T01:11:28.712Z,2.30
2018-12-13T01:12:28.679Z,2.30
2018-12-13T01:13:28.807Z,2.80
2018-12-13T01:14:28.649Z,2.20
2018-12-13T01:15:28.591Z,2.30
2018-12-13T01:16:28.621Z,2.50
2018-12-13T01:17:28.535Z,2.30
2018-12-13T01:18:28.555Z,2.00
2018-12-13T01:19:28.624Z,2.00
2018-12-13T01:20:28.544Z,2.10
2018-12-13T01:21:28.466Z,2.10
2018-12-13T01:22:28.475Z,3.20
2018-12-13T01:23:28.353Z,2.70
2018-12-13T01:24:28.389Z,3.40
2018-12-13T01:25:28.402Z,2.30
2018-12-13T01:26:28.272Z,2.20
2018-12-13T01:27:28.275Z,2.30
2018-12-13T01:28:28.281Z,2.60
2018-12-13T01:29:28.200Z,2.30
2018-12-13T01:30:28.292Z,2.90
2018-12-13T01:31:28.178Z,2.60
2018-12-13T01:32:28.136Z,2.30
2018-12-13T01:33:28.159Z,2.60
2018-12-13T01:34:28.093Z,2.30
2018-12-13T01:35:28.739Z,2.40
2018-12-13T01:36:28.029Z,2.50
2018-12-13T01:37:28.014Z,2.20
2018-12-13T01:38:27.994Z,2.20
2018-12-13T01:39:27.941Z,2.50
2018-12-13T01:40:27.931Z,2.40
2018-12-13T01:41:28.017Z,2.30
2018-12-13T01:42:27.886Z,2.20
2018-12-13T01:43:27.906Z,2.60
2018-12-13T01:44:27.884Z,2.90
2018-12-13T01:45:27.875Z,2.30
2018-12-13T01:46:28.202Z,2.50
2018-12-13T01:47:27.752Z,2.10
2018-12-13T01:48:27.732Z,2.80
2018-12-13T01:49:27.707Z,2.20
2018-12-13T01:50:27.679Z,2.50
2018-12-13T01:51:27.699Z,2.40
2018-12-13T01:52:27.656Z,2.80
2018-12-13T01:53:27.597Z,2.60
2018-12-13T01:54:27.586Z,2.40
2018-12-13T01:55:27.552Z,2.60
2018-12-13T01:56:27.570Z,2.30
2018-12-13T01:57:27.819Z,2.30
2018-12-13T01:58:27.989Z,2.30
2018-12-13T01:59:27.579Z,2.60
2018-12-13T02:00:27.448Z,2.90
2018-12-13T02:01:28.167Z,2.60
2018-12-13T02:02:27.885Z,2.40
2018-12-13T02:03:27.567Z,2.20
2018-12-13T02:04:27.839Z,2.20
2018-12-13T02:05:27.598Z,2.20
2018-12-13T02:06:27.316Z,2.70
2018-12-13T02:07:27.256Z,2.60
2018-12-13T02:08:27.832Z,3.30
2018-12-13T02:09:27.340Z,2.10
2018-12-13T02:10:27.167Z,3.20
2018-12-13T02:11:27.281Z,2.50
2018-12-13T02:12:27.248Z,2.70
2018-12-13T02:13:27.287Z,2.20
2018-12-13T02:14:27.164Z,2.60
2018-12-13T02:15:27.047Z,2.70
2018-12-13T02:16:27.140Z,2.20
2018-12-13T02:17:27.029Z,2.40
2018-12-13T02:18:27.018Z,2.70
2018-12-13T02:19:27.131Z,2.80
2018-12-13T02:20:26.936Z,2.30
2018-12-13T02:21:26.902Z,2.70
2018-12-13T02:22:26.844Z,2.30
2018-12-13T02:23:26.859Z,2.40
2018-12-13T02:24:27.091Z,2.80
2018-12-13T02:25:26.877Z,2.60
2018-12-13T02:26:27.049Z,2.70
2018-12-13T02:27:26.743Z,3.00
2018-12-13T02:28:26.721Z,2.70
2018-12-13T02:29:26.767Z,2.30
2018-12-13T02:30:26.674Z,2.40
2018-12-13T02:31:26.616Z,3.00
2018-12-13T02:32:26.605Z,2.40
2018-12-13T02:33:26.573Z,2.50
2018-12-13T02:34:26.553Z,2.80
2018-12-13T02:35:26.649Z,2.60
2018-12-13T02:36:26.510Z,2.80
2018-12-13T02:37:26.502Z,3.30
2018-12-13T02:38:26.564Z,3.20
2018-12-13T02:39:26.437Z,3.30
2018-12-13T02:40:26.976Z,3.50
2018-12-13T02:41:26.715Z,3.10
2018-12-13T02:42:26.370Z,2.60
2018-12-13T02:43:26.450Z,3.50
2018-12-13T02:44:26.632Z,3.50
2018-12-13T02:45:26.267Z,3.10
2018-12-13T02:46:26.772Z,3.40
2018-12-13T02:47:26.820Z,3.00
2018-12-13T02:48:26.219Z,3.70
2018-12-13T02:49:26.195Z,4.10
2018-12-13T02:50:26.650Z,3.30
2018-12-13T02:51:26.151Z,3.20
2018-12-13T02:52:26.085Z,3.10
2018-12-13T02:53:26.144Z,3.00
2018-12-13T02:54:26.112Z,2.80
2018-12-13T02:55:26.016Z,2.90
2018-12-13T02:56:26.009Z,2.70
2018-12-13T02:57:25.965Z,2.60
2018-12-13T02:58:25.989Z,2.70
2018-12-13T02:59:25.984Z,2.20
2018-12-13T03:00:25.919Z,2.70
2018-12-13T03:01:25.867Z,3.20
2018-12-13T03:02:25.839Z,2.90
2018-12-13T03:03:25.904Z,3.00
2018-12-13T03:04:25.773Z,2.80
2018-12-13T03:05:25.764Z,2.90
2018-12-13T03:06:25.901Z,3.10
2018-12-13T03:07:25.717Z,3.00
2018-12-13T03:08:25.791Z,2.90
2018-12-13T03:09:25.693Z,3.20
2018-12-13T03:10:25.627Z,3.20
2018-12-13T03:11:26.041Z,3.40
2018-12-13T03:12:25.661Z,2.80
2018-12-13T03:13:25.594Z,3.60
2018-12-13T03:14:25.587Z,3.00
2018-12-13T03:15:25.507Z,2.60
2018-12-13T03:16:25.566Z,2.80
2018-12-13T03:17:25.645Z,2.70
2018-12-13T03:18:25.431Z,2.80
2018-12-13T03:19:25.516Z,3.90
2018-12-13T03:20:25.431Z,2.90
2018-12-13T03:21:25.362Z,2.70
2018-12-13T03:22:25.497Z,2.80
2018-12-13T03:23:25.682Z,2.50
2018-12-13T03:24:26.242Z,3.10
2018-12-13T03:25:25.598Z,2.90
2018-12-13T03:26:25.375Z,2.90
2018-12-13T03:27:25.400Z,2.90
2018-12-13T03:28:25.476Z,2.90
2018-12-13T03:29:25.210Z,3.30
2018-12-13T03:30:25.266Z,2.30
2018-12-13T03:31:25.304Z,3.40
2018-12-13T03:32:25.210Z,3.00
2018-12-13T03:33:25.322Z,3.30
2018-12-13T03:34:25.237Z,3.30
2018-12-13T03:35:25.837Z,3.20
2018-12-13T03:36:25.302Z,3.10
2018-12-13T03:37:25.306Z,3.20
2018-12-13T03:38:25.031Z,3.50
2018-12-13T03:39:25.392Z,3.10
2018-12-13T03:40:25.567Z,3.00
2018-12-13T03:41:25.093Z,3.30
2018-12-13T03:42:25.360Z,3.20
2018-12-13T03:43:25.028Z,3.00
2018-12-13T03:44:24.771Z,2.80
2018-12-13T03:45:25.383Z,3.20
2018-12-13T03:46:24.877Z,3.20
2018-12-13T03:47:24.689Z,3.20
2018-12-13T03:48:25.005Z,3.30
2018-12-13T03:49:24.949Z,3.10
2018-12-13T03:50:25.161Z,2.90
2018-12-13T03:51:25.030Z,3.20
2018-12-13T03:52:25.371Z,2.70
2018-12-13T03:53:24.934Z,3.70
2018-12-13T03:54:24.501Z,3.00
2018-12-13T03:55:24.853Z,3.10
2018-12-13T03:56:24.654Z,3.60
2018-12-13T03:57:25.446Z,2.80
2018-12-13T03:58:25.095Z,2.80
2018-12-13T03:59:24.753Z,3.00
2018-12-13T04:00:25.086Z,3.30
2018-12-13T04:01:25.015Z,2.70
2018-12-13T04:02:24.730Z,3.20
2018-12-13T04:03:25.736Z,2.90
2018-12-13T04:04:24.843Z,2.80
2018-12-13T04:05:24.753Z,3.40
2018-12-13T04:06:24.195Z,2.60
2018-12-13T04:07:27.725Z,2.80
2018-12-13T04:08:24.557Z,3.30
2018-12-13T04:09:25.076Z,3.30
2018-12-13T04:10:24.481Z,2.90
2018-12-13T04:11:24.402Z,2.90
2018-12-13T04:12:24.034Z,3.50
2018-12-13T04:13:24.165Z,3.00
2018-12-13T04:14:24.665Z,3.40
2018-12-13T04:15:24.199Z,2.90
2018-12-13T04:16:24.254Z,2.70
2018-12-13T04:17:24.504Z,2.70
2018-12-13T04:18:24.504Z,2.90
2018-12-13T04:19:24.614Z,2.60
2018-12-13T04:20:23.837Z,2.70
2018-12-13T04:21:24.151Z,2.90
2018-12-13T04:22:24.173Z,2.70
2018-12-13T04:23:24.238Z,3.10
2018-12-13T04:24:24.481Z,2.50
2018-12-13T04:25:23.921Z,2.70
2018-12-13T04:26:24.250Z,2.90
2018-12-13T04:27:23.672Z,3.10
2018-12-13T04:28:23.615Z,2.70
2018-12-13T04:29:24.054Z,3.20
2018-12-13T04:30:24.569Z,2.90
2018-12-13T04:31:24.081Z,2.80
2018-12-13T04:32:24.201Z,2.90
2018-12-13T04:33:24.092Z,2.50
2018-12-13T04:34:24.125Z,2.80
2018-12-13T04:35:24.091Z,3.00
2018-12-13T04:36:24.930Z,2.40
2018-12-13T04:37:23.756Z,2.90
2018-12-13T04:38:23.371Z,3.30
2018-12-13T04:39:23.334Z,3.00
2018-12-13T04:40:23.302Z,2.60
2018-12-13T04:41:23.265Z,2.80
2018-12-13T04:42:23.411Z,3.10
2018-12-13T04:43:23.241Z,2.30
2018-12-13T04:44:23.255Z,2.90
2018-12-13T04:45:23.825Z,2.60
2018-12-13T04:46:23.757Z,3.20
2018-12-13T04:47:24.036Z,2.80
2018-12-13T04:48:23.794Z,3.00
2018-12-13T04:49:23.685Z,2.90
2018-12-13T04:50:23.285Z,2.90
2018-12-13T04:51:23.033Z,2.70
2018-12-13T04:52:22.995Z,3.40
2018-12-13T04:53:23.004Z,2.60
2018-12-13T04:54:22.944Z,2.70
2018-12-13T04:55:22.931Z,2.50
2018-12-13T04:56:22.878Z,3.00
2018-12-13T04:57:22.865Z,2.70
2018-12-13T04:58:22.951Z,2.10
2018-12-13T04:59:22.801Z,3.10
2018-12-13T05:00:22.779Z,2.30
2018-12-13T05:01:22.751Z,3.30
2018-12-13T05:02:22.719Z,2.80
2018-12-13T05:03:22.757Z,2.60
2018-12-13T05:04:22.733Z,2.70
2018-12-13T05:05:22.666Z,3.10
2018-12-13T05:06:22.643Z,2.60
2018-12-13T05:07:22.605Z,2.70
2018-12-13T05:08:22.628Z,2.90
2018-12-13T05:09:22.546Z,2.40
2018-12-13T05:10:22.514Z,2.50
2018-12-13T05:11:22.499Z,2.80
2018-12-13T05:12:22.463Z,2.80
2018-12-13T05:13:22.483Z,2.40
2018-12-13T05:14:22.519Z,3.00
2018-12-13T05:15:22.464Z,2.20
2018-12-13T05:16:22.386Z,2.80
2018-12-13T05:17:23.527Z,2.70
2018-12-13T05:18:22.304Z,2.70
2018-12-13T05:19:22.284Z,3.00
2018-12-13T05:20:22.448Z,3.00
2018-12-13T05:21:22.328Z,3.00
2018-12-13T05:22:22.228Z,2.60
2018-12-13T05:23:22.235Z,2.70
2018-12-13T05:24:22.163Z,2.60
2018-12-13T05:25:22.244Z,3.10
2018-12-13T05:26:22.107Z,2.80
2018-12-13T05:27:22.164Z,2.30
2018-12-13T05:28:22.054Z,2.50
2018-12-13T05:29:22.081Z,2.80
2018-12-13T05:30:22.065Z,2.50
2018-12-13T05:31:22.150Z,2.60
2018-12-13T05:32:21.974Z,2.80
2018-12-13T05:33:21.924Z,2.60
2018-12-13T05:34:21.981Z,2.50
2018-12-13T05:35:21.878Z,2.50
2018-12-13T05:36:21.861Z,2.40
2018-12-13T05:37:21.926Z,2.30
2018-12-13T05:38:21.849Z,2.80
2018-12-13T05:39:21.796Z,2.30
2018-12-13T05:40:21.753Z,2.60
2018-12-13T05:41:21.775Z,2.40
2018-12-13T05:42:21.802Z,2.40
2018-12-13T05:43:21.707Z,2.60
2018-12-13T05:44:21.630Z,2.70
2018-12-13T05:45:21.649Z,2.00
2018-12-13T05:46:21.594Z,2.80
2018-12-13T05:47:21.667Z,2.20
2018-12-13T05:48:21.617Z,2.50
2018-12-13T05:49:21.534Z,2.60
2018-12-13T05:50:21.528Z,2.30
2018-12-13T05:51:21.508Z,2.10
2018-12-13T05:52:21.527Z,2.40
2018-12-13T05:53:21.492Z,2.60
2018-12-13T05:54:21.394Z,2.80
2018-12-13T05:55:21.408Z,2.50
2018-12-13T05:56:21.340Z,2.70
2018-12-13T05:57:21.312Z,2.50
2018-12-13T05:58:21.283Z,2.30
2018-12-13T05:59:21.344Z,2.50
2018-12-13T06:00:21.282Z,2.40
2018-12-13T06:01:21.211Z,2.40
2018-12-13T06:02:21.162Z,2.50
2018-12-13T06:03:21.188Z,2.40
2018-12-13T06:04:21.238Z,2.40
2018-12-13T06:05:21.096Z,2.10
2018-12-13T06:06:21.067Z,2.40
2018-12-13T06:07:21.056Z,2.40
2018-12-13T06:08:21.011Z,2.60
2018-12-13T06:09:21.091Z,2.30
2018-12-13T06:10:21.010Z,2.50
2018-12-13T06:11:20.983Z,2.40
2018-12-13T06:12:20.898Z,2.40
2018-12-13T06:13:20.896Z,2.40
2018-12-13T06:14:20.955Z,2.00
2018-12-13T06:15:20.835Z,2.40
2018-12-13T06:16:20.803Z,2.40
2018-12-13T06:17:20.795Z,2.50
2018-12-13T06:18:20.796Z,2.40
2018-12-13T06:19:26.594Z,2.40
2018-12-13T06:20:20.696Z,2.10
2018-12-13T06:21:20.682Z,2.20
2018-12-13T06:22:20.650Z,2.40
2018-12-13T06:23:20.633Z,2.30
2018-12-13T06:24:20.598Z,3.10
2018-12-13T06:25:20.684Z,2.60
2018-12-13T06:26:20.530Z,2.30
2018-12-13T06:27:20.525Z,3.00
2018-12-13T06:28:20.505Z,2.50
2018-12-13T06:29:20.480Z,2.30
2018-12-13T06:30:20.444Z,2.60
2018-12-13T06:31:20.529Z,2.40
2018-12-13T06:32:20.372Z,2.30
2018-12-13T06:33:24.818Z,2.20
2018-12-13T06:34:20.325Z,2.20
2018-12-13T06:35:20.316Z,2.50
2018-12-13T06:36:20.289Z,2.60
2018-12-13T06:37:20.420Z,3.00
2018-12-13T06:38:20.282Z,2.80
2018-12-13T06:39:20.208Z,2.50
2018-12-13T06:40:20.169Z,2.80
2018-12-13T06:41:20.158Z,3.00
2018-12-13T06:42:20.232Z,2.40
2018-12-13T06:43:20.093Z,3.00
2018-12-13T06:44:20.057Z,2.40
2018-12-13T06:45:20.043Z,2.60
2018-12-13T06:46:20.087Z,2.70
2018-12-13T06:47:20.146Z,2.30
2018-12-13T06:48:19.964Z,2.90
2018-12-13T06:49:19.963Z,2.70
2018-12-13T06:50:19.920Z,2.80
2018-12-13T06:51:20.226Z,2.70
2018-12-13T06:52:19.947Z,2.70
2018-12-13T06:53:19.834Z,2.70
2018-12-13T06:54:19.844Z,2.50
2018-12-13T06:55:19.776Z,2.40
2018-12-13T06:56:19.745Z,2.20
2018-12-13T06:57:19.726Z,2.60
2018-12-13T06:58:19.808Z,3.00
2018-12-13T06:59:19.661Z,2.30
2018-12-13T07:00:19.645Z,2.40
2018-12-13T07:01:19.607Z,2.60
2018-12-13T07:02:19.591Z,2.70
2018-12-13T07:03:19.578Z,2.50
2018-12-13T07:04:19.603Z,2.80
2018-12-13T07:05:19.517Z,2.50
2018-12-13T07:06:19.490Z,2.50
2018-12-13T07:07:19.494Z,2.50
2018-12-13T07:08:19.437Z,2.70
2018-12-13T07:09:19.425Z,2.10
2018-12-13T07:10:19.509Z,2.10
2018-12-13T07:11:19.392Z,2.20
2018-12-13T07:12:19.338Z,2.90
2018-12-13T07:13:19.294Z,2.20
2018-12-13T07:14:19.264Z,2.50
2018-12-13T07:15:19.249Z,2.20
2018-12-13T07:16:19.312Z,2.20
2018-12-13T07:17:19.195Z,2.20
2018-12-13T07:18:19.152Z,2.20
2018-12-13T07:19:19.140Z,2.70
2018-12-13T07:20:19.145Z,2.40
2018-12-13T07:21:19.152Z,2.30
2018-12-13T07:22:19.062Z,2.60
2018-12-13T07:23:19.026Z,2.50
2018-12-13T07:24:19.032Z,2.20
2018-12-13T07:25:19.001Z,2.80
2018-12-13T07:26:19.047Z,2.50
2018-12-13T07:27:18.931Z,2.60
2018-12-13T07:28:18.907Z,2.80
2018-12-13T07:29:18.883Z,2.20
2018-12-13T07:30:18.855Z,2.30
2018-12-13T07:31:18.932Z,2.40
2018-12-13T07:32:18.833Z,2.40
2018-12-13T07:33:18.780Z,2.90
2018-12-13T07:34:18.818Z,3.00
2018-12-13T07:35:18.724Z,2.30
2018-12-13T07:36:18.707Z,2.80
2018-12-13T07:37:18.774Z,2.40
2018-12-13T07:38:18.654Z,2.80
2018-12-13T07:39:18.648Z,2.70
2018-12-13T07:40:18.580Z,2.90
2018-12-13T07:41:18.592Z,2.70
2018-12-13T07:42:18.635Z,2.60
2018-12-13T07:43:18.513Z,2.60
2018-12-13T07:44:18.485Z,2.40
2018-12-13T07:45:18.525Z,2.60
2018-12-13T07:46:18.450Z,2.60
2018-12-13T07:47:18.396Z,2.90
2018-12-13T07:48:18.478Z,2.50
2018-12-13T07:49:18.369Z,2.50
2018-12-13T07:50:18.312Z,2.50
2018-12-13T07:51:18.307Z,2.30
2018-12-13T07:52:18.279Z,2.30
2018-12-13T07:53:18.231Z,2.50
2018-12-13T07:54:18.334Z,2.40
2018-12-13T07:55:18.184Z,3.10
2018-12-13T07:56:18.151Z,2.60
2018-12-13T07:57:18.140Z,3.00
2018-12-13T07:58:18.119Z,2.40
2018-12-13T07:59:18.231Z,2.30
2018-12-13T08:00:18.071Z,2.40
2018-12-13T08:01:18.036Z,1.80
2018-12-13T08:02:17.999Z,2.20
2018-12-13T08:03:17.970Z,2.90
2018-12-13T08:04:18.067Z,2.40
2018-12-13T08:05:17.915Z,2.70
2018-12-13T08:06:17.907Z,2.70
2018-12-13T08:07:17.917Z,2.80
2018-12-13T08:08:20.746Z,2.90
2018-12-13T08:09:17.856Z,2.70
2018-12-13T08:10:17.961Z,2.50
2018-12-13T08:11:17.758Z,2.60
2018-12-13T08:12:17.761Z,2.40
2018-12-13T08:13:17.733Z,2.60
2018-12-13T08:14:17.698Z,2.30
2018-12-13T08:15:17.644Z,2.50
2018-12-13T08:16:17.744Z,2.90
2018-12-13T08:17:17.606Z,2.80
2018-12-13T08:18:17.574Z,2.50
2018-12-13T08:19:17.554Z,2.90
2018-12-13T08:20:17.522Z,2.90
2018-12-13T08:21:17.541Z,2.80
2018-12-13T08:22:17.478Z,2.80
2018-12-13T08:23:17.461Z,2.70
2018-12-13T08:24:17.410Z,2.70
2018-12-13T08:25:17.397Z,2.40
2018-12-13T08:26:17.360Z,2.60
2018-12-13T08:27:17.431Z,2.70
2018-12-13T08:28:17.324Z,3.30
2018-12-13T08:29:17.346Z,2.90
2018-12-13T08:30:17.379Z,2.80
2018-12-13T08:31:17.231Z,2.70
2018-12-13T08:32:17.226Z,3.30
2018-12-13T08:33:17.288Z,2.60
2018-12-13T08:34:17.157Z,3.10
2018-12-13T08:35:17.122Z,2.90
2018-12-13T08:36:17.117Z,2.80
2018-12-13T08:37:17.069Z,3.00
2018-12-13T08:38:17.161Z,3.00
2018-12-13T08:39:17.025Z,2.70
2018-12-13T08:40:17.006Z,2.70
2018-12-13T08:41:16.962Z,2.40
2018-12-13T08:42:16.951Z,3.10
2018-12-13T08:43:16.913Z,2.80
2018-12-13T08:44:16.980Z,3.00
2018-12-13T08:45:16.854Z,3.40
2018-12-13T08:46:16.823Z,2.70
2018-12-13T08:47:16.845Z,3.00
2018-12-13T08:48:16.808Z,2.90
2018-12-13T08:49:16.870Z,2.40
2018-12-13T08:50:16.735Z,2.40
2018-12-13T08:51:16.728Z,2.80
2018-12-13T08:52:16.685Z,2.90
2018-12-13T08:53:16.653Z,2.60
2018-12-13T08:54:16.832Z,2.70
2018-12-13T08:55:16.608Z,2.70
2018-12-13T08:56:16.582Z,2.80
2018-12-13T08:57:16.538Z,2.80
2018-12-13T08:58:16.513Z,2.60
2018-12-13T08:59:16.598Z,2.60
2018-12-13T09:00:16.523Z,3.20
2018-12-13T09:01:16.447Z,3.00
2018-12-13T09:02:16.418Z,2.80
2018-12-13T09:03:16.386Z,3.10
2018-12-13T09:04:16.348Z,2.90
2018-12-13T09:05:16.451Z,2.40
2018-12-13T09:06:16.301Z,2.80
2018-12-13T09:07:16.270Z,2.40
2018-12-13T09:08:16.251Z,3.10
2018-12-13T09:09:16.236Z,2.30
2018-12-13T09:10:16.323Z,3.20
2018-12-13T09:11:16.172Z,3.20
2018-12-13T09:12:16.157Z,3.10
2018-12-13T09:13:16.133Z,3.00
2018-12-13T09:14:16.109Z,2.90
2018-12-13T09:15:16.171Z,2.60
2018-12-13T09:16:16.032Z,2.70
2018-12-13T09:17:16.021Z,2.50
2018-12-13T09:18:16.008Z,2.90
2018-12-13T09:19:15.978Z,2.60
2018-12-13T09:20:15.932Z,2.80
2018-12-13T09:21:15.985Z,2.50
2018-12-13T09:22:15.893Z,3.10
2018-12-13T09:23:15.857Z,3.10
2018-12-13T09:24:15.849Z,2.70
2018-12-13T09:25:15.801Z,3.10
2018-12-13T09:26:15.881Z,2.90
2018-12-13T09:27:16.738Z,2.40
2018-12-13T09:28:15.721Z,3.20
2018-12-13T09:29:15.702Z,2.80
2018-12-13T09:30:15.733Z,2.10
2018-12-13T09:31:15.742Z,2.40
2018-12-13T09:32:15.622Z,3.00
2018-12-13T09:33:15.601Z,2.50
2018-12-13T09:34:15.611Z,2.40
2018-12-13T09:35:15.550Z,2.30
2018-12-13T09:36:15.629Z,2.40
2018-12-13T09:37:15.491Z,3.00
2018-12-13T09:38:15.479Z,2.60
2018-12-13T09:39:15.429Z,2.20
2018-12-13T09:40:15.404Z,2.30
2018-12-13T09:41:15.410Z,2.70
2018-12-13T09:42:15.460Z,2.60
2018-12-13T09:43:15.405Z,2.40
2018-12-13T09:44:15.288Z,2.50
2018-12-13T09:45:15.340Z,2.80
2018-12-13T09:46:15.238Z,2.50
2018-12-13T09:47:15.358Z,2.10
2018-12-13T09:48:15.196Z,2.30
2018-12-13T09:49:15.167Z,2.30
2018-12-13T09:50:15.131Z,2.10
2018-12-13T09:51:15.125Z,2.30
2018-12-13T09:52:15.094Z,2.20
2018-12-13T09:53:15.149Z,2.10
2018-12-13T09:54:15.049Z,2.50
2018-12-13T09:55:15.017Z,2.20
2018-12-13T09:56:14.971Z,2.40
2018-12-13T09:57:14.937Z,2.50
2018-12-13T09:58:15.022Z,2.30
2018-12-13T09:59:14.892Z,2.20
2018-12-13T10:00:14.864Z,3.10
2018-12-13T10:01:14.841Z,2.30
2018-12-13T10:02:14.809Z,2.00
2018-12-13T10:03:14.837Z,2.30
2018-12-13T10:04:14.790Z,2.00
2018-12-13T10:05:14.750Z,2.40
2018-12-13T10:06:14.722Z,2.40
2018-12-13T10:07:14.705Z,2.00
2018-12-13T10:08:14.770Z,2.20
2018-12-13T10:09:14.641Z,2.30
2018-12-13T10:10:14.614Z,2.40
2018-12-13T10:11:14.575Z,2.40
2018-12-13T10:12:14.546Z,2.80
2018-12-13T10:13:14.620Z,2.50
2018-12-13T10:14:14.493Z,2.30
2018-12-13T10:15:14.466Z,1.90
2018-12-13T10:16:14.461Z,2.00
2018-12-13T10:17:14.979Z,2.60
2018-12-13T10:18:15.747Z,2.60
2018-12-13T10:19:14.473Z,2.70
2018-12-13T10:20:14.352Z,2.30
2018-12-13T10:21:14.307Z,2.10
2018-12-13T10:22:14.284Z,2.30
2018-12-13T10:23:14.279Z,1.90
2018-12-13T10:24:14.238Z,2.40
2018-12-13T10:25:14.330Z,2.80
2018-12-13T10:26:14.194Z,2.40
2018-12-13T10:27:14.166Z,2.30
2018-12-13T10:28:14.165Z,2.40
2018-12-13T10:29:15.135Z,2.20
2018-12-13T10:30:14.109Z,2.50
2018-12-13T10:31:14.138Z,2.60
2018-12-13T10:32:14.027Z,2.40
2018-12-13T10:33:14.007Z,2.40
2018-12-13T10:34:13.985Z,2.30
2018-12-13T10:35:13.980Z,2.40
2018-12-13T10:36:14.023Z,2.00
2018-12-13T10:37:13.879Z,1.80
2018-12-13T10:38:13.861Z,2.10
2018-12-13T10:39:13.836Z,2.00
2018-12-13T10:40:13.817Z,2.60
2018-12-13T10:41:13.881Z,2.30
2018-12-13T10:42:13.753Z,2.40
2018-12-13T10:43:13.729Z,2.20
2018-12-13T10:44:13.701Z,2.20
2018-12-13T10:45:13.704Z,2.20
2018-12-13T10:46:13.732Z,2.70
2018-12-13T10:47:13.623Z,2.20
2018-12-13T10:48:13.592Z,2.40
2018-12-13T10:49:13.562Z,2.40
2018-12-13T10:50:13.575Z,2.20
2018-12-13T10:51:13.616Z,2.00
2018-12-13T10:52:13.482Z,2.00
2018-12-13T10:53:13.454Z,2.50
2018-12-13T10:54:13.432Z,2.30
2018-12-13T10:55:13.410Z,2.00
2018-12-13T10:56:13.380Z,2.40
2018-12-13T10:57:13.519Z,2.10
2018-12-13T10:58:13.337Z,2.10
2018-12-13T10:59:13.300Z,2.70
2018-12-13T11:00:14.351Z,2.10
2018-12-13T11:01:13.243Z,2.20
2018-12-13T11:02:13.206Z,2.70
2018-12-13T11:03:13.346Z,2.10
2018-12-13T11:04:13.182Z,2.40
2018-12-13T11:05:13.202Z,2.50
2018-12-13T11:06:13.106Z,2.60
2018-12-13T11:07:13.094Z,2.40
2018-12-13T11:08:13.163Z,2.10
2018-12-13T11:09:13.033Z,3.30
2018-12-13T11:10:13.017Z,2.70
2018-12-13T11:11:12.990Z,2.00
2018-12-13T11:12:12.948Z,2.70
2018-12-13T11:13:12.964Z,2.20
2018-12-13T11:14:12.916Z,2.30
2018-12-13T11:15:12.861Z,2.20
2018-12-13T11:16:12.834Z,2.10
2018-12-13T11:17:12.798Z,2.50
2018-12-13T11:18:12.884Z,2.00
2018-12-13T11:19:12.776Z,2.40
2018-12-13T11:20:12.735Z,2.40
2018-12-13T11:21:17.481Z,2.60
2018-12-13T11:22:12.726Z,2.70
2018-12-13T11:23:12.766Z,2.50
2018-12-13T11:24:12.643Z,2.00
2018-12-13T11:25:12.599Z,2.40
2018-12-13T11:26:12.584Z,2.40
2018-12-13T11:27:12.549Z,2.20
2018-12-13T11:28:12.648Z,2.40
2018-12-13T11:29:12.485Z,2.20
2018-12-13T11:30:12.474Z,1.80
2018-12-13T11:31:12.446Z,2.00
2018-12-13T11:32:12.573Z,2.40
2018-12-13T11:33:12.470Z,2.00
2018-12-13T11:34:12.445Z,1.70
2018-12-13T11:35:12.922Z,2.30
2018-12-13T11:36:12.304Z,1.70
2018-12-13T11:37:12.275Z,1.90
2018-12-13T11:38:12.277Z,1.80
2018-12-13T11:39:12.276Z,1.80
2018-12-13T11:40:12.284Z,2.00
2018-12-13T11:41:12.155Z,1.90
2018-12-13T11:42:12.143Z,1.80
2018-12-13T11:43:12.190Z,1.80
2018-12-13T11:44:12.133Z,1.40
2018-12-13T11:45:12.165Z,2.10
2018-12-13T11:46:12.042Z,1.70
2018-12-13T11:47:11.996Z,1.90
2018-12-13T11:48:11.974Z,1.70
2018-12-13T11:49:12.377Z,1.40
2018-12-13T11:50:12.019Z,1.50
2018-12-13T11:51:11.913Z,1.40
2018-12-13T11:52:11.884Z,1.70
2018-12-13T11:53:11.861Z,1.60
2018-12-13T11:54:11.884Z,1.40
2018-12-13T11:55:11.896Z,1.40
2018-12-13T11:56:11.782Z,1.70
2018-12-13T11:57:11.738Z,1.20
2018-12-13T11:58:13.217Z,1.50
2018-12-13T11:59:11.707Z,1.80
2018-12-13T12:00:11.834Z,1.50
2018-12-13T12:01:11.636Z,2.00
2018-12-13T12:02:11.614Z,1.80
2018-12-13T12:03:11.601Z,1.70
2018-12-13T12:04:12.056Z,2.20
2018-12-13T12:05:11.629Z,1.40
2018-12-13T12:06:11.548Z,1.70
2018-12-13T12:07:11.472Z,1.60
2018-12-13T12:08:11.448Z,1.70
2018-12-13T12:09:12.332Z,1.50
2018-12-13T12:10:11.392Z,1.60
2018-12-13T12:11:11.469Z,1.40
2018-12-13T12:12:11.356Z,1.40
2018-12-13T12:13:11.345Z,1.40
2018-12-13T12:14:11.296Z,1.50
2018-12-13T12:15:11.244Z,1.70
2018-12-13T12:16:11.324Z,2.10
2018-12-13T12:17:11.218Z,1.40
2018-12-13T12:18:11.202Z,1.50
2018-12-13T12:19:11.229Z,1.40
2018-12-13T12:20:11.202Z,1.60
2018-12-13T12:21:11.203Z,1.50
2018-12-13T12:22:11.063Z,1.50
2018-12-13T12:23:11.101Z,1.80
2018-12-13T12:24:11.008Z,1.70
2018-12-13T12:25:11.274Z,1.50
2018-12-13T12:26:11.793Z,1.60
2018-12-13T12:27:11.397Z,1.30
2018-12-13T12:28:11.247Z,1.20
2018-12-13T12:29:11.296Z,2.70
2018-12-13T12:30:10.863Z,2.10
2018-12-13T12:31:11.380Z,1.40
2018-12-13T12:32:11.062Z,1.60
2018-12-13T12:33:11.292Z,1.60
2018-12-13T12:34:11.124Z,1.50
2018-12-13T12:35:11.188Z,1.50
2018-12-13T12:36:10.902Z,1.80
2018-12-13T12:37:11.132Z,1.60
2018-12-13T12:38:10.678Z,1.90
2018-12-13T12:39:10.620Z,1.80
2018-12-13T12:40:10.624Z,1.50
2018-12-13T12:41:11.039Z,1.40
2018-12-13T12:42:10.790Z,1.50
2018-12-13T12:43:11.176Z,1.60
2018-12-13T12:44:10.680Z,1.50
2018-12-13T12:45:10.504Z,2.00
2018-12-13T12:46:11.022Z,1.90
2018-12-13T12:47:11.436Z,1.50
2018-12-13T12:48:10.729Z,1.60
2018-12-13T12:49:10.650Z,1.80
2018-12-13T12:50:10.712Z,1.90
2018-12-13T12:51:10.694Z,2.10
2018-12-13T12:52:10.822Z,1.80
2018-12-13T12:53:10.936Z,1.50
2018-12-13T12:54:10.560Z,1.80
2018-12-13T12:55:10.574Z,2.60
2018-12-13T12:56:10.515Z,2.10
2018-12-13T12:57:10.149Z,2.00
2018-12-13T12:58:10.105Z,1.50
2018-12-13T12:59:10.191Z,1.80
2018-12-13T13:00:10.072Z,1.80
2018-12-13T13:01:10.048Z,1.70
2018-12-13T13:02:10.565Z,1.30
2018-12-13T13:03:10.552Z,1.70
2018-12-13T13:04:10.046Z,1.70
2018-12-13T13:05:10.320Z,1.30
2018-12-13T13:06:10.240Z,1.80
2018-12-13T13:07:10.161Z,1.90
2018-12-13T13:08:10.108Z,1.60
2018-12-13T13:09:10.530Z,1.70
2018-12-13T13:10:10.267Z,2.00
2018-12-13T13:11:10.075Z,1.60
2018-12-13T13:12:10.000Z,1.70
2018-12-13T13:13:10.282Z,1.50
2018-12-13T13:14:10.762Z,1.80
2018-12-13T13:15:10.182Z,1.40
2018-12-13T13:16:09.642Z,1.90
2018-12-13T13:17:10.203Z,1.80
2018-12-13T13:18:09.810Z,1.50